Time;durP1;ratioP1;P1;durP2;ratioP2;P2;SDS_P1;SDS_P2;PMS_P1;PMS_P2;Temp;Humidity;BMP_temperature;BMP_pressure;BME280_temperature;BME280_humidity;BME280_pressure;Samples;Min_cycle;Max_cycle;Signal;HPM_P1;HPM_P2
2023/01/29 00:01:36;;;;;;;12.38;5.88;;;4.10;99.90;;;;;;5089622;28;20400;-86
2023/01/29 00:04:02;;;;;;;11.43;6.30;;;;;;;;;;5072134;28;20043;-88
2023/01/29 00:06:27;;;;;;;13.90;5.90;;;4.10;99.90;;;;;;5091322;28;20055;-86
2023/01/29 00:08:53;;;;;;;14.13;6.55;;;4.10;99.90;;;;;;5058346;28;20046;-88
2023/01/29 00:11:19;;;;;;;12.30;6.30;;;3.90;99.90;;;;;;5092107;28;20062;-86
2023/01/29 00:13:45;;;;;;;13.18;6.72;;;4.20;99.90;;;;;;5092299;28;20074;-86
2023/01/29 00:16:11;;;;;;;14.65;6.35;;;4.10;99.90;;;;;;5074603;28;20054;-87
2023/01/29 00:18:38;;;;;;;13.85;6.43;;;4.10;99.90;;;;;;5088006;28;20035;-85
2023/01/29 00:21:11;;;;;;;11.77;6.25;;;4.10;99.90;;;;;;5079112;28;20403;-87
2023/01/29 00:23:37;;;;;;;;;;;2.80;99.90;;;;;;5072866;28;20040;-87
2023/01/29 00:26:03;;;;;;;14.32;6.78;;;5.40;99.90;;;;;;5061266;28;20434;-88
2023/01/29 00:28:31;;;;;;;15.30;6.43;;;4.20;99.90;;;;;;5047416;28;20322;-87
2023/01/29 00:30:57;;;;;;;16.95;6.88;;;4.10;99.90;;;;;;5087035;28;20044;-88
2023/01/29 00:33:27;;;;;;;16.73;7.75;;;5.20;99.90;;;;;;5049776;28;20069;-87
2023/01/29 00:35:53;;;;;;;15.45;7.80;;;4.10;99.90;;;;;;5088045;28;20036;-87
2023/01/29 00:38:18;;;;;;;15.00;7.78;;;4.10;99.90;;;;;;5072046;28;20093;-86
2023/01/29 00:46:15;;;;;;;13.80;7.43;;;5.20;99.90;;;;;;5094397;28;20515;-87
2023/01/29 00:48:41;;;;;;;16.65;7.97;;;4.10;99.90;;;;;;5074407;28;20039;-89
2023/01/29 00:51:07;;;;;;;14.73;7.95;;;4.10;99.90;;;;;;5099730;28;20039;-87
2023/01/29 00:53:32;;;;;;;14.02;7.45;;;5.60;99.90;;;;;;5087150;28;20050;-87
2023/01/29 00:55:58;;;;;;;15.02;8.10;;;4.20;99.90;;;;;;5067035;28;20094;-87
2023/01/29 00:58:27;;;;;;;14.95;8.30;;;5.20;99.90;;;;;;5066374;28;20085;-87
2023/01/29 01:00:54;;;;;;;15.80;8.13;;;4.10;99.90;;;;;;5072993;28;20059;-87
2023/01/29 01:03:20;;;;;;;15.23;7.65;;;5.20;99.90;;;;;;5084892;28;20036;-87
2023/01/29 01:05:46;;;;;;;14.40;8.00;;;;;;;;;;5091521;28;20476;-87
2023/01/29 01:11:02;;;;;;;15.82;8.27;;;4.20;99.90;;;;;;5105915;28;20035;-87
2023/01/29 01:13:29;;;;;;;15.32;7.88;;;5.20;99.90;;;;;;5074306;28;20091;-87
2023/01/29 01:15:59;;;;;;;15.95;8.98;;;4.20;99.90;;;;;;5087687;28;20069;-88
2023/01/29 01:18:28;;;;;;;16.52;8.30;;;4.10;99.90;;;;;;5103157;28;20533;-88
2023/01/29 01:20:57;;;;;;;15.23;8.20;;;4.00;99.90;;;;;;5087399;28;20307;-86
2023/01/29 01:23:22;;;;;;;17.52;8.82;;;3.10;99.90;;;;;;5085414;28;20429;-87
2023/01/29 01:25:49;;;;;;;16.02;8.82;;;;;;;;;;5087987;28;20074;-88
2023/01/29 01:28:15;;;;;;;15.18;8.95;;;;;;;;;;5085176;28;20040;-88
2023/01/29 01:30:40;;;;;;;17.10;9.18;;;4.20;99.90;;;;;;5086770;28;20040;-87
2023/01/29 01:33:06;;;;;;;15.77;8.68;;;4.80;99.90;;;;;;5091713;28;20088;-87
2023/01/29 01:35:32;;;;;;;16.48;8.98;;;5.70;99.90;;;;;;5069866;28;20124;-87
2023/01/29 01:37:58;;;;;;;18.42;9.02;;;6.00;99.90;;;;;;5057395;28;20115;-87
2023/01/29 01:40:25;;;;;;;15.10;8.82;;;4.20;99.90;;;;;;5056346;28;20040;-87
2023/01/29 01:42:53;;;;;;;17.42;9.70;;;5.50;99.90;;;;;;5090122;28;20093;-87
2023/01/29 01:45:28;;;;;;;15.07;9.07;;;4.20;99.90;;;;;;5085116;28;20044;-87
2023/01/29 01:48:14;;;;;;;17.55;9.80;;;4.20;99.90;;;;;;5091294;28;20039;-88
2023/01/29 01:51:00;;;;;;;17.63;9.30;;;4.20;99.90;;;;;;5085317;28;20047;-87
2023/01/29 01:53:33;;;;;;;18.25;9.57;;;3.90;99.90;;;;;;5095396;28;20047;-88
2023/01/29 01:56:03;;;;;;;17.23;9.38;;;4.20;99.90;;;;;;5109716;28;20035;-87
2023/01/29 01:58:42;;;;;;;21.65;10.18;;;5.40;99.90;;;;;;5095493;28;20035;-87
2023/01/29 02:01:08;;;;;;;18.88;10.30;;;5.60;99.90;;;;;;5090141;28;20069;-88
2023/01/29 02:09:40;;;;;;;22.48;10.73;;;5.30;99.90;;;;;;5111875;28;20482;-86
2023/01/29 02:12:11;;;;;;;17.02;9.98;;;5.30;99.90;;;;;;5113223;28;20047;-86
2023/01/29 02:14:40;;;;;;;16.13;10.13;;;5.70;99.90;;;;;;5108199;28;20048;-87
2023/01/29 02:17:08;;;;;;;16.75;10.15;;;6.20;99.90;;;;;;5076536;28;20046;-87
2023/01/29 02:20:01;;;;;;;17.67;9.95;;;4.30;99.90;;;;;;5098664;28;20043;-88
2023/01/29 02:22:53;;;;;;;18.33;10.65;;;4.30;99.90;;;;;;5110667;28;20396;-87
2023/01/29 02:25:57;;;;;;;17.95;10.63;;;4.30;99.90;;;;;;5090400;28;20048;-86
2023/01/29 02:28:47;;;;;;;19.95;11.10;;;4.30;99.90;;;;;;5079136;28;20040;-88
2023/01/29 02:31:40;;;;;;;17.27;10.38;;;4.30;99.90;;;;;;5084589;28;20508;-88
2023/01/29 02:34:30;;;;;;;17.75;10.88;;;4.30;99.90;;;;;;5111608;28;20073;-86
2023/01/29 02:37:10;;;;;;;20.83;11.32;;;4.30;99.90;;;;;;5090918;28;20123;-89
2023/01/29 02:39:46;;;;;;;21.30;11.65;;;4.30;99.90;;;;;;5091555;28;20032;-87
2023/01/29 02:42:26;;;;;;;20.60;11.77;;;3.20;99.90;;;;;;5107181;28;20296;-87
2023/01/29 02:45:03;;;;;;;20.83;12.25;;;4.80;99.90;;;;;;5094202;28;20040;-87
2023/01/29 02:47:43;;;;;;;22.63;12.57;;;4.30;99.90;;;;;;5090530;28;20113;-87
2023/01/29 02:50:27;;;;;;;20.13;12.15;;;4.30;99.90;;;;;;5106155;28;20047;-88
2023/01/29 02:53:14;;;;;;;19.60;12.13;;;4.30;99.90;;;;;;5087981;28;20047;-89
2023/01/29 02:55:48;;;;;;;21.80;13.10;;;4.30;99.90;;;;;;5093760;28;20039;-87
2023/01/29 02:58:43;;;;;;;21.45;12.63;;;5.40;99.90;;;;;;5088477;28;20445;-88
2023/01/29 03:01:17;;;;;;;22.23;13.48;;;4.30;99.90;;;;;;5081476;28;20036;-88
2023/01/29 03:03:49;;;;;;;23.33;13.82;;;5.10;99.90;;;;;;5092694;28;20082;-88
2023/01/29 03:06:21;;;;;;;23.05;13.32;;;5.80;99.90;;;;;;5112093;28;20508;-89
2023/01/29 03:08:54;;;;;;;22.58;14.02;;;4.30;99.90;;;;;;5106900;28;20039;-88
2023/01/29 03:11:20;;;;;;;20.73;14.07;;;5.50;99.90;;;;;;5092314;28;20054;-89
2023/01/29 03:14:12;;;;;;;23.08;14.35;;;6.00;99.90;;;;;;5076586;28;20432;-88
2023/01/29 03:16:44;;;;;;;23.15;14.48;;;4.30;99.90;;;;;;5091638;28;20050;-87
2023/01/29 03:19:18;;;;;;;24.95;15.60;;;4.30;99.90;;;;;;5106507;28;20036;-85
2023/01/29 03:21:57;;;;;;;23.15;14.45;;;6.10;99.90;;;;;;5107586;27;20153;-87
2023/01/29 03:33:17;;;;;;;23.08;15.20;;;4.40;99.90;;;;;;5110306;28;20043;-88
2023/01/29 03:36:08;;;;;;;23.85;14.70;;;4.10;99.90;;;;;;5092071;28;20036;-87
2023/01/29 03:38:35;;;;;;;24.70;15.18;;;4.10;99.90;;;;;;5088757;28;20044;-87
2023/01/29 03:41:22;;;;;;;22.95;14.85;;;4.20;99.90;;;;;;5082573;28;20492;-87
2023/01/29 03:44:30;;;;;;;24.73;14.70;;;4.20;99.90;;;;;;5090786;28;20050;-86
2023/01/29 03:47:16;;;;;;;26.85;16.10;;;4.30;99.90;;;;;;5003015;28;20115;-88
2023/01/29 03:50:03;;;;;;;24.83;15.23;;;4.30;99.90;;;;;;5092971;28;20039;-87
2023/01/29 03:52:53;;;;;;;26.75;16.08;;;4.80;99.90;;;;;;5081343;28;20067;-87
2023/01/29 03:55:29;;;;;;;25.20;15.52;;;4.30;99.90;;;;;;5089606;28;20027;-87
2023/01/29 03:57:59;;;;;;;26.52;15.52;;;4.30;99.90;;;;;;5107814;28;20111;-87
2023/01/29 04:00:37;;;;;;;25.85;15.90;;;5.90;99.90;;;;;;5109680;28;20092;-88
2023/01/29 04:03:28;;;;;;;25.52;15.65;;;4.30;99.90;;;;;;5087422;28;20381;-87
2023/01/29 04:06:08;;;;;;;26.13;16.77;;;4.20;99.90;;;;;;5080482;28;20126;-88
2023/01/29 04:08:39;;;;;;;25.33;16.17;;;4.30;99.90;;;;;;5085352;28;20036;-87
2023/01/29 04:11:11;;;;;;;26.85;16.95;;;4.60;99.90;;;;;;5092994;28;20043;-87
2023/01/29 04:13:38;;;;;;;24.60;17.02;;;6.10;99.90;;;;;;5077160;28;20059;-88
2023/01/29 04:16:08;;;;;;;27.67;16.73;;;4.30;99.90;;;;;;5072191;28;20036;-87
2023/01/29 04:18:35;;;;;;;29.40;17.85;;;;;;;;;;5071598;28;20032;-87
2023/01/29 04:21:01;;;;;;;26.67;16.83;;;4.30;99.90;;;;;;5075420;28;20389;-89
2023/01/29 04:23:27;;;;;;;25.80;17.20;;;4.30;99.90;;;;;;5082191;28;20101;-88
2023/01/29 04:26:12;;;;;;;25.85;17.48;;;5.90;99.90;;;;;;5072194;28;20044;-86
2023/01/29 04:28:57;;;;;;;26.90;17.23;;;4.30;99.90;;;;;;5085882;28;20040;-87
2023/01/29 04:31:33;;;;;;;28.60;16.77;;;4.30;99.90;;;;;;5097225;28;20177;-88
2023/01/29 04:34:27;;;;;;;27.65;18.42;;;4.30;99.90;;;;;;5104160;28;20076;-87
2023/01/29 04:36:59;;;;;;;27.48;17.38;;;4.30;99.90;;;;;;5089708;28;20058;-87
2023/01/29 04:39:36;;;;;;;26.10;17.27;;;4.30;99.90;;;;;;5080431;28;20518;-87
2023/01/29 04:42:16;;;;;;;27.45;16.05;;;4.30;99.90;;;;;;5092139;28;20428;-89
2023/01/29 04:44:45;;;;;;;26.45;17.40;;;4.30;99.90;;;;;;5091967;28;20151;-86
2023/01/29 04:47:28;;;;;;;28.08;17.70;;;4.70;99.90;;;;;;5107566;28;20077;-87
2023/01/29 04:49:58;;;;;;;26.77;15.80;;;4.30;99.90;;;;;;5100824;28;20043;-88
2023/01/29 04:52:37;;;;;;;24.75;16.98;;;4.30;99.90;;;;;;5108877;28;20039;-88
2023/01/29 04:55:08;;;;;;;25.95;17.17;;;;;;;;;;5108459;28;20039;-88
2023/01/29 04:57:57;;;;;;;28.80;17.20;;;4.30;99.90;;;;;;5108888;28;20044;-87
2023/01/29 05:00:31;;;;;;;28.90;17.05;;;4.30;99.90;;;;;;5089166;28;20042;-88
2023/01/29 05:02:59;;;;;;;25.15;16.38;;;4.30;99.90;;;;;;5091867;28;20046;-88
2023/01/29 05:05:25;;;;;;;25.02;16.63;;;5.60;99.90;;;;;;5108232;28;20352;-89
2023/01/29 05:07:51;;;;;;;29.45;17.33;;;4.30;99.90;;;;;;5108575;28;20492;-88
2023/01/29 05:10:20;;;;;;;26.92;16.88;;;4.30;99.90;;;;;;5044537;28;20465;-90
2023/01/29 05:13:00;;;;;;;28.38;17.45;;;4.30;99.90;;;;;;5091426;28;20114;-88
2023/01/29 05:15:34;;;;;;;28.85;17.35;;;4.20;99.90;;;;;;5057943;28;20394;-88
2023/01/29 05:18:07;;;;;;;28.15;17.20;;;4.20;99.90;;;;;;5091470;28;20071;-88
2023/01/29 05:20:38;;;;;;;28.40;17.70;;;4.60;99.90;;;;;;5070152;28;20495;-89
2023/01/29 05:23:04;;;;;;;26.50;16.08;;;;;;;;;;5102542;28;20118;-88
2023/01/29 05:25:35;;;;;;;27.50;17.48;;;4.20;99.90;;;;;;5108377;28;20073;-88
2023/01/29 05:28:12;;;;;;;27.40;17.23;;;;;;;;;;5093068;28;20403;-89
2023/01/29 05:30:41;;;;;;;27.50;16.75;;;4.30;99.90;;;;;;5084871;28;20062;-88
2023/01/29 05:33:14;;;;;;;29.58;17.92;;;5.00;99.90;;;;;;5076962;28;20572;-89
2023/01/29 05:35:40;;;;;;;;;;;4.20;99.90;;;;;;5094910;28;20040;-89
2023/01/29 05:38:06;;;;;;;27.17;16.73;;;5.70;99.90;;;;;;5077909;28;19938;-87
2023/01/29 05:40:32;;;;;;;27.77;17.25;;;4.10;99.90;;;;;;5094291;28;20032;-88
2023/01/29 05:43:02;;;;;;;27.02;17.15;;;5.20;99.90;;;;;;5084616;28;20040;-89
2023/01/29 05:45:28;;;;;;;27.70;17.58;;;3.60;99.90;;;;;;5090628;28;20225;-89
2023/01/29 05:47:57;;;;;;;26.27;16.98;;;4.70;99.90;;;;;;5079293;28;20040;-89
2023/01/29 05:50:27;;;;;;;25.83;16.40;;;4.10;99.90;;;;;;5099251;28;20039;-88
2023/01/29 05:53:00;;;;;;;27.98;16.95;;;4.20;99.90;;;;;;5094627;28;20040;-89
2023/01/29 05:55:28;;;;;;;;;;;4.10;99.90;;;;;;5110008;28;20047;-87
2023/01/29 05:57:54;;;;;;;26.58;15.65;;;4.10;99.90;;;;;;5106509;28;19915;-89
2023/01/29 06:00:26;;;;;;;27.95;17.55;;;;;;;;;;5096171;28;20138;-89
2023/01/29 06:02:52;;;;;;;26.48;16.65;;;;;;;;;;5107575;28;20040;-87
2023/01/29 06:05:20;;;;;;;27.27;16.95;;;4.10;99.90;;;;;;5094332;28;20042;-90
2023/01/29 06:07:46;;;;;;;27.35;16.42;;;4.10;99.90;;;;;;5073282;28;20068;-89
2023/01/29 06:10:16;;;;;;;27.10;16.75;;;;;;;;;;5074557;28;20078;-88
2023/01/29 06:12:43;;;;;;;29.05;17.80;;;4.10;99.90;;;;;;5103636;28;20533;-89
2023/01/29 06:15:25;;;;;;;27.08;17.98;;;4.10;99.90;;;;;;5082872;28;20468;-88
2023/01/29 06:17:58;;;;;;;27.60;17.63;;;4.20;99.90;;;;;;5090072;28;20051;-88
2023/01/29 06:20:24;;;;;;;28.42;17.23;;;5.90;99.90;;;;;;5094418;28;20311;-89
2023/01/29 06:22:50;;;;;;;30.20;17.70;;;4.20;99.90;;;;;;5076598;28;20126;-89
2023/01/29 06:25:16;;;;;;;27.90;17.33;;;4.20;99.90;;;;;;5111777;28;20607;-88
2023/01/29 06:27:41;;;;;;;29.15;18.08;;;4.10;99.90;;;;;;5086127;28;20122;-89
2023/01/29 06:30:08;;;;;;;29.98;17.58;;;5.80;99.90;;;;;;5094785;28;20043;-91
2023/01/29 06:32:34;;;;;;;27.92;18.17;;;4.20;99.90;;;;;;5092723;28;20035;-89
2023/01/29 06:34:59;;;;;;;30.88;18.58;;;5.80;99.90;;;;;;5076880;28;20092;-89
2023/01/29 06:37:25;;;;;;;29.88;19.20;;;4.20;99.90;;;;;;5077391;28;20046;-88
2023/01/29 06:39:51;;;;;;;32.30;19.73;;;;;;;;;;5055720;28;20122;-88
2023/01/29 06:42:26;;;;;;;32.85;19.65;;;4.30;99.90;;;;;;5085752;28;20116;-90
2023/01/29 06:44:56;;;;;;;32.03;19.73;;;4.30;99.90;;;;;;5083213;28;20071;-87
2023/01/29 06:47:28;;;;;;;34.50;20.83;;;4.30;99.90;;;;;;5093980;28;20044;-89
2023/01/29 06:49:56;;;;;;;32.72;21.15;;;4.30;99.90;;;;;;5076189;28;20105;-89
2023/01/29 06:52:24;;;;;;;36.03;22.08;;;4.30;99.90;;;;;;5066900;28;20077;-87
2023/01/29 06:54:49;;;;;;;34.70;21.30;;;5.50;99.90;;;;;;5082873;28;20499;-88
2023/01/29 06:57:15;;;;;;;32.90;21.45;;;5.80;99.90;;;;;;5081241;28;20039;-88
2023/01/29 06:59:41;;;;;;;34.10;21.90;;;;;;;;;;5074189;28;20545;-88
2023/01/29 07:02:08;;;;;;;37.53;21.70;;;4.60;99.90;;;;;;5102001;27;20038;-89
2023/01/29 07:04:37;;;;;;;35.45;21.55;;;;;;;;;;5105457;28;20488;-89
2023/01/29 07:07:04;;;;;;;36.63;22.10;;;4.30;99.90;;;;;;5063868;28;20043;-87
2023/01/29 07:09:42;;;;;;;35.90;22.75;;;4.30;99.90;;;;;;5127333;27;1273692;-84
2023/01/29 07:12:09;;;;;;;32.90;22.27;;;4.70;99.90;;;;;;5139793;27;20042;-85
2023/01/29 07:14:35;;;;;;;34.35;22.30;;;4.40;99.90;;;;;;5116347;27;20049;-85
2023/01/29 07:17:00;;;;;;;35.28;22.55;;;4.40;99.90;;;;;;5140217;27;20042;-85
2023/01/29 07:19:26;;;;;;;34.78;22.45;;;4.50;99.90;;;;;;5126619;27;20130;-85
2023/01/29 07:21:52;;;;;;;34.25;22.70;;;4.30;99.90;;;;;;5143339;27;20483;-85
2023/01/29 07:24:18;;;;;;;37.75;22.75;;;4.30;99.90;;;;;;5133267;27;20035;-85
2023/01/29 07:26:44;;;;;;;38.88;24.63;;;5.00;99.90;;;;;;5147638;27;20034;-85
2023/01/29 07:29:10;;;;;;;32.30;21.45;;;4.30;99.90;;;;;;5123482;27;20347;-85
2023/01/29 07:31:35;;;;;;;33.45;21.95;;;4.30;99.90;;;;;;5135976;27;20343;-86
2023/01/29 07:34:02;;;;;;;32.42;21.55;;;4.50;99.90;;;;;;5150323;27;20035;-85
2023/01/29 07:36:28;;;;;;;35.53;21.80;;;4.40;99.90;;;;;;5147821;27;20065;-85
2023/01/29 07:38:54;;;;;;;32.05;20.08;;;4.40;99.90;;;;;;5148227;27;20039;-84
2023/01/29 07:41:20;;;;;;;30.90;20.98;;;4.90;99.90;;;;;;5135734;27;20118;-86
2023/01/29 07:43:46;;;;;;;32.22;21.23;;;4.40;99.90;;;;;;5128076;27;21108;-85
2023/01/29 07:46:12;;;;;;;32.90;21.48;;;4.40;99.90;;;;;;5128169;27;20034;-85
2023/01/29 07:48:37;;;;;;;32.50;21.08;;;4.40;99.90;;;;;;5130285;27;20041;-85
2023/01/29 07:51:04;;;;;;;33.58;21.75;;;4.40;99.90;;;;;;5148985;27;20475;-85
2023/01/29 07:53:29;;;;;;;32.45;21.58;;;4.40;99.90;;;;;;5148582;27;20071;-85
2023/01/29 07:55:55;;;;;;;31.10;21.15;;;4.40;99.90;;;;;;5130424;27;20034;-85
2023/01/29 07:58:21;;;;;;;33.90;22.17;;;4.40;99.90;;;;;;5124881;27;20114;-85
2023/01/29 08:00:47;;;;;;;33.03;21.92;;;4.60;99.90;;;;;;5094698;27;20123;-85
2023/01/29 08:03:16;;;;;;;30.95;20.73;;;4.60;99.90;;;;;;5117483;27;20043;-85
2023/01/29 08:05:42;;;;;;;32.20;21.80;;;4.80;99.90;;;;;;5109489;27;20498;-85
2023/01/29 08:08:08;;;;;;;33.55;22.70;;;5.10;99.90;;;;;;5125272;27;20567;-85
2023/01/29 08:10:34;;;;;;;32.50;21.60;;;5.60;99.90;;;;;;5108583;27;20045;-85
2023/01/29 08:13:01;;;;;;;30.08;20.70;;;4.50;99.90;;;;;;5128118;27;20039;-85
2023/01/29 08:15:28;;;;;;;35.13;22.08;;;5.20;99.90;;;;;;5127851;27;20034;-85
2023/01/29 08:17:54;;;;;;;33.72;22.40;;;5.90;99.90;;;;;;5127334;27;20042;-84
2023/01/29 08:20:21;;;;;;;32.88;22.27;;;5.00;99.90;;;;;;5103464;27;20519;-84
2023/01/29 08:22:47;;;;;;;32.22;21.38;;;4.50;99.90;;;;;;5075845;27;20330;-84
2023/01/29 08:25:14;;;;;;;33.15;22.30;;;4.80;99.90;;;;;;5106628;27;20183;-85
2023/01/29 08:27:40;;;;;;;34.35;22.70;;;4.50;99.90;;;;;;5080527;27;20404;-84
2023/01/29 08:30:08;;;;;;;33.72;22.60;;;4.80;99.90;;;;;;5097208;27;20039;-84
2023/01/29 08:32:33;;;;;;;31.63;23.00;;;4.60;99.90;;;;;;5111801;27;20043;-84
2023/01/29 08:34:59;;;;;;;32.85;22.30;;;4.60;99.90;;;;;;5103517;27;20042;-84
2023/01/29 08:37:25;;;;;;;32.83;21.90;;;4.60;99.90;;;;;;5114505;27;20039;-85
2023/01/29 08:39:50;;;;;;;33.20;23.63;;;4.60;99.90;;;;;;5097619;27;20043;-85
2023/01/29 08:42:16;;;;;;;34.95;23.15;;;4.60;99.90;;;;;;5113346;27;20043;-84
2023/01/29 08:44:42;;;;;;;33.90;23.08;;;4.80;99.90;;;;;;5097271;27;20043;-84
2023/01/29 08:47:08;;;;;;;35.92;24.00;;;4.60;99.90;;;;;;5097415;27;20034;-84
2023/01/29 08:49:33;;;;;;;36.53;23.55;;;5.20;99.90;;;;;;5097617;27;20035;-84
2023/01/29 08:51:59;;;;;;;33.92;23.42;;;4.60;99.90;;;;;;5096525;27;20035;-84
2023/01/29 08:54:25;;;;;;;35.17;24.38;;;4.60;99.90;;;;;;5112874;27;20039;-83
2023/01/29 08:56:50;;;;;;;35.45;23.83;;;4.60;99.90;;;;;;5097338;27;20071;-84
2023/01/29 08:59:16;;;;;;;36.85;24.35;;;4.60;99.90;;;;;;5095827;27;20088;-84
2023/01/29 09:01:42;;;;;;;36.72;25.70;;;4.60;99.90;;;;;;5096558;27;20129;-84
2023/01/29 09:04:08;;;;;;;34.10;23.50;;;5.20;99.90;;;;;;5114099;27;20504;-84
2023/01/29 09:06:34;;;;;;;34.45;23.63;;;5.00;99.90;;;;;;5112995;27;20042;-84
2023/01/29 09:09:00;;;;;;;36.33;24.45;;;4.80;99.90;;;;;;5113782;27;20543;-84
2023/01/29 09:11:25;;;;;;;35.28;24.55;;;4.70;99.90;;;;;;5096092;27;20088;-84
2023/01/29 09:13:51;;;;;;;37.67;24.02;;;4.60;99.90;;;;;;5113806;27;20039;-84
2023/01/29 09:16:17;;;;;;;36.58;24.85;;;5.00;99.90;;;;;;5097024;27;20036;-84
2023/01/29 09:18:43;;;;;;;34.85;24.38;;;4.70;99.90;;;;;;5094176;27;20071;-84
2023/01/29 09:21:10;;;;;;;37.17;24.30;;;4.70;99.90;;;;;;5112640;27;20054;-84
2023/01/29 09:23:35;;;;;;;36.83;24.25;;;4.70;99.90;;;;;;5113767;27;20058;-84
2023/01/29 09:26:01;;;;;;;35.97;24.45;;;5.20;99.90;;;;;;5113585;27;20350;-84
2023/01/29 09:28:27;;;;;;;35.60;23.80;;;4.70;99.90;;;;;;5113290;27;20082;-85
2023/01/29 09:30:53;;;;;;;36.45;23.73;;;4.80;99.90;;;;;;5094948;28;20138;-84
2023/01/29 09:33:19;;;;;;;33.85;23.75;;;;;;;;;;5113200;27;20046;-84
2023/01/29 09:35:46;;;;;;;34.53;23.60;;;4.80;99.90;;;;;;5096585;27;20031;-84
2023/01/29 09:38:12;;;;;;;37.75;24.20;;;4.80;99.90;;;;;;5096709;27;20042;-85
2023/01/29 09:41:03;;;;;;;32.72;23.20;;;4.80;99.90;;;;;;5113104;27;20058;-84
2023/01/29 09:43:51;;;;;;;37.00;24.20;;;4.80;99.90;;;;;;5108505;28;20090;-84
2023/01/29 09:46:16;;;;;;;37.90;24.30;;;4.90;99.90;;;;;;5098136;28;20394;-84
2023/01/29 09:48:44;;;;;;;36.15;23.17;;;4.90;99.90;;;;;;5107989;27;20031;-84
2023/01/29 09:51:47;;;;;;;33.67;22.15;;;5.10;99.90;;;;;;5096142;27;20044;-84
2023/01/29 09:54:22;;;;;;;33.83;22.85;;;4.90;99.90;;;;;;5070960;28;20036;-84
2023/01/29 09:56:52;;;;;;;36.25;23.40;;;4.90;99.90;;;;;;5103018;27;20118;-84
2023/01/29 09:59:22;;;;;;;37.33;23.65;;;5.20;99.90;;;;;;5112994;27;20039;-84
2023/01/29 10:02:21;;;;;;;36.10;22.30;;;5.00;99.90;;;;;;5112869;27;20062;-84
2023/01/29 10:05:30;;;;;;;36.58;23.15;;;4.90;99.90;;;;;;5096111;27;20046;-85
2023/01/29 10:08:15;;;;;;;36.92;22.42;;;5.00;99.90;;;;;;5112560;27;20062;-84
2023/01/29 10:10:53;;;;;;;35.65;23.13;;;5.50;99.90;;;;;;5112928;27;20051;-84
2023/01/29 10:13:31;;;;;;;34.90;22.90;;;5.00;99.90;;;;;;5111787;27;20046;-84
2023/01/29 10:16:00;;;;;;;33.20;22.42;;;5.00;99.90;;;;;;5106762;27;20062;-84
2023/01/29 10:18:44;;;;;;;40.22;24.70;;;5.00;99.90;;;;;;5095520;27;20043;-84
2023/01/29 10:21:23;;;;;;;38.53;23.58;;;5.00;99.90;;;;;;5112601;27;20114;-84
2023/01/29 10:24:14;;;;;;;38.15;24.58;;;5.00;99.90;;;;;;5112584;27;20074;-84
2023/01/29 10:26:40;;;;;;;41.25;24.33;;;5.10;99.90;;;;;;5111565;27;20043;-84
2023/01/29 10:29:07;;;;;;;38.45;24.48;;;5.10;99.90;;;;;;5095039;27;20043;-84
2023/01/29 10:31:38;;;;;;;37.60;23.90;;;5.10;99.90;;;;;;5095425;27;20043;-84
2023/01/29 10:34:13;;;;;;;37.50;24.20;;;5.30;99.90;;;;;;5112378;27;20035;-85
2023/01/29 10:36:47;;;;;;;37.50;24.40;;;5.10;99.90;;;;;;5112452;27;20035;-84
2023/01/29 10:39:21;;;;;;;34.05;22.92;;;5.10;99.90;;;;;;5095683;28;20036;-85
2023/01/29 10:42:05;;;;;;;39.30;23.33;;;5.10;99.90;;;;;;5095062;27;20496;-85
2023/01/29 10:45:16;;;;;;;40.15;24.42;;;5.20;99.90;;;;;;5112533;27;20236;-84
2023/01/29 10:47:43;;;;;;;37.28;24.23;;;5.10;99.90;;;;;;5028981;28;20532;-85
2023/01/29 10:50:35;;;;;;;38.33;24.40;;;5.10;99.90;;;;;;5100340;27;20108;-83
2023/01/29 10:53:50;;;;;;;43.42;24.45;;;5.30;99.90;;;;;;5112196;27;20039;-85
2023/01/29 10:56:34;;;;;;;38.30;23.55;;;5.10;99.90;;;;;;5029956;28;20506;-85
2023/01/29 10:59:04;;;;;;;38.75;24.17;;;5.10;99.90;;;;;;5104681;28;20050;-85
2023/01/29 11:01:30;;;;;;;40.83;24.02;;;5.10;99.90;;;;;;5112498;27;20440;-85
2023/01/29 11:03:59;;;;;;;38.15;24.77;;;5.10;99.90;;;;;;5112200;28;20427;-85
2023/01/29 11:06:32;;;;;;;38.17;24.02;;;5.10;99.90;;;;;;5111750;28;20122;-85
2023/01/29 11:09:33;;;;;;;44.15;25.52;;;5.10;99.90;;;;;;5080397;28;20081;-85
2023/01/29 11:12:03;;;;;;;36.97;23.95;;;5.10;99.90;;;;;;5094925;28;20039;-84
2023/01/29 11:14:44;;;;;;;41.72;25.02;;;5.10;99.90;;;;;;5088718;28;20463;-85
2023/01/29 11:17:17;;;;;;;39.75;24.48;;;5.10;99.90;;;;;;5069937;28;20032;-85
2023/01/29 11:19:45;;;;;;;36.85;23.63;;;5.10;99.90;;;;;;5064188;28;20058;-85
2023/01/29 11:22:18;;;;;;;36.80;23.50;;;5.50;99.90;;;;;;5087342;28;20160;-85
2023/01/29 11:24:45;;;;;;;37.88;24.05;;;5.10;99.90;;;;;;5088077;28;20048;-85
2023/01/29 11:27:25;;;;;;;39.97;24.75;;;5.20;99.90;;;;;;5086092;28;20035;-85
2023/01/29 11:29:52;;;;;;;37.47;22.35;;;5.20;99.90;;;;;;5081055;28;20041;-85
2023/01/29 11:32:21;;;;;;;36.20;23.25;;;5.60;99.90;;;;;;5088212;28;20036;-85
2023/01/29 11:35:21;;;;;;;39.20;22.92;;;5.20;99.90;;;;;;5088610;28;20056;-85
2023/01/29 11:37:46;;;;;;;38.03;23.00;;;5.10;99.90;;;;;;5062598;28;20454;-85
2023/01/29 11:40:18;;;;;;;36.50;22.75;;;5.10;99.90;;;;;;5066644;28;20047;-85
2023/01/29 11:42:47;;;;;;;36.67;22.73;;;5.10;99.90;;;;;;5070149;28;20412;-85
2023/01/29 11:45:19;;;;;;;40.90;22.88;;;5.20;99.90;;;;;;5086737;28;20054;-85
2023/01/29 11:47:51;;;;;;;37.55;22.40;;;5.20;99.90;;;;;;5085503;28;20535;-85
2023/01/29 11:50:35;;;;;;;36.63;21.67;;;5.20;99.90;;;;;;5085461;28;20044;-84
2023/01/29 11:53:02;;;;;;;35.15;22.15;;;5.20;99.90;;;;;;5087774;28;20331;-84
2023/01/29 11:55:34;;;;;;;35.25;20.70;;;5.40;99.90;;;;;;5071087;28;20497;-85
2023/01/29 11:58:11;;;;;;;36.17;22.67;;;5.20;99.90;;;;;;5070290;28;20059;-84
2023/01/29 12:00:40;;;;;;;37.45;22.33;;;5.60;99.90;;;;;;5085932;28;20078;-84
2023/01/29 12:03:10;;;;;;;36.25;22.30;;;5.50;99.90;;;;;;5089564;28;20068;-84
2023/01/29 12:05:39;;;;;;;36.25;21.83;;;5.40;99.90;;;;;;5088966;28;20471;-83
2023/01/29 12:08:16;;;;;;;37.20;22.30;;;5.30;99.90;;;;;;5095124;27;20055;-84
2023/01/29 12:10:42;;;;;;;37.72;21.88;;;5.50;99.90;;;;;;5098141;27;20515;-84
2023/01/29 12:13:14;;;;;;;32.10;20.83;;;5.30;99.90;;;;;;5096422;27;20043;-84
2023/01/29 12:15:43;;;;;;;34.53;21.52;;;5.30;99.90;;;;;;5115050;27;20055;-84
2023/01/29 12:18:42;;;;;;;34.65;21.48;;;5.30;99.90;;;;;;5111264;27;20397;-85
2023/01/29 12:21:18;;;;;;;34.95;21.83;;;5.30;99.90;;;;;;5114084;27;20039;-84
2023/01/29 12:23:56;;;;;;;33.97;22.33;;;5.30;99.90;;;;;;5113833;27;20039;-85
2023/01/29 12:26:51;;;;;;;39.65;23.08;;;5.30;99.90;;;;;;5097943;27;20039;-85
2023/01/29 12:29:50;;;;;;;34.85;22.13;;;5.30;99.90;;;;;;5096119;27;20400;-85
2023/01/29 12:32:25;;;;;;;36.50;22.15;;;5.30;99.90;;;;;;5114642;27;20081;-84
2023/01/29 12:35:00;;;;;;;38.25;23.05;;;5.40;99.90;;;;;;5114775;27;20035;-85
2023/01/29 12:37:53;;;;;;;35.92;22.25;;;5.30;99.90;;;;;;5097060;27;20031;-84
2023/01/29 12:40:23;;;;;;;37.13;22.87;;;5.30;99.90;;;;;;5105863;27;20071;-85
2023/01/29 12:42:54;;;;;;;35.95;22.05;;;5.30;99.90;;;;;;5121135;27;20072;-84
2023/01/29 12:45:22;;;;;;;33.15;21.27;;;5.30;99.90;;;;;;5096357;27;20038;-85
2023/01/29 12:47:56;;;;;;;32.83;21.23;;;5.70;99.90;;;;;;5111123;27;20097;-85
2023/01/29 12:50:27;;;;;;;35.55;21.92;;;5.30;99.90;;;;;;5112854;27;20508;-84
2023/01/29 12:53:00;;;;;;;32.92;20.90;;;5.40;99.90;;;;;;5096132;27;20076;-85
2023/01/29 12:55:36;;;;;;;35.65;21.70;;;5.30;99.90;;;;;;5115148;27;20149;-85
2023/01/29 12:58:22;;;;;;;35.92;21.48;;;5.30;99.90;;;;;;5111637;27;20039;-85
2023/01/29 13:00:51;;;;;;;35.33;22.83;;;5.30;99.90;;;;;;5097722;28;20044;-85
2023/01/29 13:03:27;;;;;;;33.30;21.80;;;5.20;99.90;;;;;;5097108;27;20060;-84
2023/01/29 13:06:10;;;;;;;34.92;22.50;;;5.60;99.90;;;;;;5113987;27;20516;-85
2023/01/29 13:08:43;;;;;;;;;;;5.20;99.90;;;;;;5131743;27;20062;-85
2023/01/29 13:11:21;;;;;;;33.83;20.10;;;5.20;99.90;;;;;;5127698;27;19921;-84
2023/01/29 13:14:02;;;;;;;34.28;21.55;;;5.20;99.90;;;;;;5113949;27;20276;-85
2023/01/29 13:16:37;;;;;;;37.22;22.48;;;5.20;99.90;;;;;;5113979;27;20043;-85
2023/01/29 13:19:33;;;;;;;34.10;22.15;;;5.20;99.90;;;;;;5113727;27;20042;-85
2023/01/29 13:22:04;;;;;;;33.28;21.00;;;5.20;99.90;;;;;;5087606;27;20047;-84
2023/01/29 13:24:39;;;;;;;30.23;20.25;;;5.10;99.90;;;;;;5113578;27;20042;-85
2023/01/29 13:27:05;;;;;;;34.45;21.75;;;5.60;99.90;;;;;;5096789;27;20046;-84
2023/01/29 13:29:32;;;;;;;32.70;21.17;;;5.20;99.90;;;;;;5109271;27;20042;-85
2023/01/29 13:32:00;;;;;;;34.22;22.33;;;5.10;99.90;;;;;;5112657;27;20035;-85
2023/01/29 13:34:42;;;;;;;32.35;20.75;;;5.50;99.90;;;;;;5113395;27;20042;-86